Time;durP1;ratioP1;P1;durP2;ratioP2;P2;SDS_P1;SDS_P2;PMS_P1;PMS_P2;Temp;Humidity;BMP_temperature;BMP_pressure;BME280_temperature;BME280_humidity;BME280_pressure;Samples;Min_cycle;Max_cycle;Signal;HPM_P1;HPM_P2
2021/08/06 00:00:30;;;;;;;3.72;1.77;;;20.00;85.50;;;;;;5070947;28;20612;-66
2021/08/06 00:02:56;;;;;;;3.83;1.80;;;19.90;85.20;;;;;;5070022;28;20028;-66
2021/08/06 00:05:21;;;;;;;3.45;1.80;;;19.90;85.40;;;;;;5060598;28;20402;-66
2021/08/06 00:07:47;;;;;;;4.10;1.98;;;20.00;85.50;;;;;;5066865;28;20395;-66
2021/08/06 00:10:12;;;;;;;4.95;2.17;;;19.90;85.70;;;;;;5053401;28;20111;-65
2021/08/06 00:12:38;;;;;;;4.38;1.95;;;19.90;85.70;;;;;;5070383;28;20024;-65
2021/08/06 00:15:04;;;;;;;4.00;1.98;;;19.90;85.90;;;;;;5070486;28;20024;-66
2021/08/06 00:17:30;;;;;;;5.13;2.30;;;19.90;85.90;;;;;;5071229;28;20030;-66
2021/08/06 00:19:55;;;;;;;3.92;2.00;;;19.90;85.80;;;;;;5055605;28;20119;-66
2021/08/06 00:22:21;;;;;;;4.55;2.30;;;19.90;85.90;;;;;;5069595;28;20037;-66
2021/08/06 00:24:46;;;;;;;5.82;2.55;;;19.90;85.80;;;;;;5064132;28;20032;-66
2021/08/06 00:27:12;;;;;;;4.50;2.13;;;19.90;85.70;;;;;;5074231;28;20529;-66
2021/08/06 00:29:37;;;;;;;4.50;2.00;;;19.90;85.70;;;;;;5072546;28;20023;-66
2021/08/06 00:32:03;;;;;;;4.15;2.25;;;19.90;85.70;;;;;;5074108;28;20032;-66
2021/08/06 00:34:29;;;;;;;4.90;2.22;;;19.90;85.60;;;;;;5068587;28;20095;-66
2021/08/06 00:36:54;;;;;;;5.28;2.75;;;19.80;85.40;;;;;;5054321;28;20082;-66
2021/08/06 00:39:20;;;;;;;4.97;2.30;;;19.80;85.40;;;;;;5074603;28;20465;-65
2021/08/06 00:41:45;;;;;;;4.95;2.60;;;19.80;85.40;;;;;;5044653;28;20046;-66
2021/08/06 00:44:11;;;;;;;8.07;2.25;;;19.80;85.40;;;;;;5073208;28;20498;-66
2021/08/06 00:46:36;;;;;;;4.50;2.35;;;19.80;85.30;;;;;;5055425;28;20111;-65
2021/08/06 00:49:03;;;;;;;5.93;2.40;;;19.80;85.40;;;;;;5054299;28;20025;-66
2021/08/06 00:51:28;;;;;;;6.18;2.30;;;19.80;85.30;;;;;;5053991;28;20052;-65
2021/08/06 00:53:54;;;;;;;5.28;2.50;;;19.80;85.50;;;;;;5073025;28;20513;-66
2021/08/06 00:56:19;;;;;;;5.25;2.28;;;19.80;85.60;;;;;;5073561;28;20483;-66
2021/08/06 00:58:45;;;;;;;4.90;2.30;;;19.80;85.40;;;;;;5074062;28;20499;-66
2021/08/06 01:01:11;;;;;;;3.70;2.20;;;19.80;85.60;;;;;;5056271;28;20040;-67
2021/08/06 01:03:53;;;;;;;5.30;2.45;;;19.80;85.60;;;;;;5054167;28;20029;-66
2021/08/06 01:06:39;;;;;;;4.43;2.42;;;19.80;85.50;;;;;;5067915;28;20107;-65
2021/08/06 01:09:35;;;;;;;4.53;2.42;;;19.70;85.50;;;;;;5074147;28;20028;-66
2021/08/06 01:12:05;;;;;;;5.15;2.50;;;19.70;85.40;;;;;;5041501;28;20497;-66
2021/08/06 01:14:36;;;;;;;4.88;2.60;;;19.80;85.50;;;;;;5067834;28;20386;-66
2021/08/06 01:17:03;;;;;;;3.95;2.30;;;19.70;85.50;;;;;;5073549;28;20029;-67
2021/08/06 01:20:03;;;;;;;4.25;2.20;;;19.70;85.40;;;;;;5055528;28;20521;-66
2021/08/06 01:22:42;;;;;;;4.40;2.50;;;19.70;85.30;;;;;;5064683;28;20099;-66
2021/08/06 01:25:14;;;;;;;4.80;2.45;;;19.70;85.30;;;;;;5073086;28;20033;-66
2021/08/06 01:27:44;;;;;;;4.97;2.40;;;19.70;85.30;;;;;;5073180;28;20086;-66
2021/08/06 01:30:11;;;;;;;5.07;2.70;;;19.70;85.40;;;;;;5054780;28;20032;-66
2021/08/06 01:32:36;;;;;;;5.60;2.65;;;19.70;85.30;;;;;;5054967;28;20090;-66
2021/08/06 01:35:04;;;;;;;3.80;2.22;;;19.70;85.30;;;;;;5072627;28;20485;-66
2021/08/06 01:37:30;;;;;;;6.45;2.67;;;19.70;85.30;;;;;;5073313;28;20030;-66
2021/08/06 01:39:56;;;;;;;4.53;2.65;;;19.70;85.40;;;;;;5073267;28;20115;-66
2021/08/06 01:42:36;;;;;;;4.78;2.60;;;19.70;85.20;;;;;;5071459;28;20040;-66
2021/08/06 01:45:05;;;;;;;5.40;2.50;;;19.70;85.00;;;;;;5072530;28;20035;-66
2021/08/06 01:47:39;;;;;;;3.65;2.20;;;19.70;85.20;;;;;;5072891;28;20035;-66
2021/08/06 01:50:13;;;;;;;4.75;2.50;;;19.70;85.30;;;;;;5072859;28;20025;-66
2021/08/06 01:52:46;;;;;;;4.95;2.60;;;19.60;85.20;;;;;;5072981;28;20092;-66
2021/08/06 01:55:13;;;;;;;6.00;2.63;;;19.60;85.20;;;;;;5072361;28;20124;-66
2021/08/06 01:57:39;;;;;;;4.60;2.25;;;19.60;85.70;;;;;;5054975;28;20547;-66
2021/08/06 02:00:06;;;;;;;5.18;2.70;;;19.60;85.60;;;;;;5072373;28;20044;-66
2021/08/06 02:02:34;;;;;;;5.15;2.83;;;19.60;85.40;;;;;;5072519;28;20390;-67
2021/08/06 02:04:59;;;;;;;4.50;2.35;;;19.60;85.40;;;;;;5054291;28;20028;-66
2021/08/06 02:07:25;;;;;;;6.15;2.67;;;19.60;85.70;;;;;;5072852;28;20074;-66
2021/08/06 02:09:53;;;;;;;5.22;2.38;;;19.60;85.60;;;;;;5054561;28;20032;-67
2021/08/06 02:12:18;;;;;;;5.53;2.40;;;19.60;85.70;;;;;;5071590;28;20028;-67
2021/08/06 02:14:44;;;;;;;4.25;2.40;;;19.60;86.00;;;;;;5049835;28;20158;-67
2021/08/06 02:17:12;;;;;;;6.75;2.78;;;19.60;85.90;;;;;;5054403;28;20043;-67
2021/08/06 02:19:39;;;;;;;5.43;2.60;;;19.60;85.70;;;;;;5072648;28;20028;-66
2021/08/06 02:22:06;;;;;;;4.15;2.33;;;19.60;85.50;;;;;;5072043;28;20029;-66
2021/08/06 02:24:33;;;;;;;4.75;2.47;;;19.60;86.10;;;;;;5073060;28;20035;-66
2021/08/06 02:27:00;;;;;;;5.03;2.40;;;19.60;86.50;;;;;;5054216;28;20024;-66
2021/08/06 02:29:29;;;;;;;5.50;2.78;;;19.60;86.40;;;;;;5072503;28;20039;-66
2021/08/06 02:31:57;;;;;;;4.45;2.55;;;19.60;86.00;;;;;;5071871;28;20041;-66
2021/08/06 02:34:23;;;;;;;5.22;2.63;;;19.60;86.20;;;;;;5071431;28;20498;-67
2021/08/06 02:36:49;;;;;;;5.35;2.50;;;19.60;86.00;;;;;;5054218;28;20025;-66
2021/08/06 02:39:18;;;;;;;4.60;2.13;;;19.50;86.00;;;;;;5072314;28;20033;-66
2021/08/06 02:41:44;;;;;;;6.20;2.78;;;19.50;86.20;;;;;;5071839;28;20024;-66
2021/08/06 02:44:10;;;;;;;4.43;2.40;;;19.60;86.10;;;;;;5070842;28;20074;-66
2021/08/06 02:46:36;;;;;;;5.35;2.40;;;19.50;85.90;;;;;;5068883;28;20032;-67
2021/08/06 02:49:02;;;;;;;5.00;2.60;;;19.50;86.00;;;;;;5067312;28;20497;-66
2021/08/06 02:51:27;;;;;;;5.10;2.65;;;19.50;86.20;;;;;;5072002;28;20032;-66
2021/08/06 02:53:53;;;;;;;4.82;2.63;;;19.50;85.90;;;;;;5060859;28;20025;-67
2021/08/06 02:56:18;;;;;;;4.38;2.50;;;19.50;86.70;;;;;;5059453;28;20139;-67
2021/08/06 02:58:44;;;;;;;5.65;2.60;;;19.50;86.30;;;;;;5053736;28;20047;-67
2021/08/06 03:01:09;;;;;;;5.00;2.70;;;19.50;86.10;;;;;;5071185;28;20041;-66
2021/08/06 03:03:35;;;;;;;6.03;2.70;;;19.50;86.20;;;;;;5048987;28;20105;-67
2021/08/06 03:06:00;;;;;;;6.03;3.20;;;19.50;86.10;;;;;;5040346;28;20025;-67
2021/08/06 03:08:26;;;;;;;6.05;2.90;;;19.50;86.10;;;;;;5071599;28;20043;-67
2021/08/06 03:10:51;;;;;;;5.65;2.88;;;19.50;85.80;;;;;;5071067;28;20048;-66
2021/08/06 03:13:17;;;;;;;6.40;3.08;;;19.50;86.00;;;;;;5069253;28;20024;-67
2021/08/06 03:15:42;;;;;;;5.47;2.65;;;19.50;85.80;;;;;;5069592;28;20039;-66
2021/08/06 03:18:11;;;;;;;4.80;2.70;;;19.50;86.00;;;;;;5053568;28;20066;-66
2021/08/06 03:20:36;;;;;;;7.35;2.80;;;19.40;85.90;;;;;;5071274;28;20078;-66
2021/08/06 03:23:02;;;;;;;4.95;2.63;;;19.40;85.60;;;;;;5053191;28;20024;-66
2021/08/06 03:25:28;;;;;;;5.07;2.72;;;19.50;86.00;;;;;;5059968;28;20490;-66
2021/08/06 03:27:58;;;;;;;5.05;2.88;;;19.40;85.80;;;;;;5054046;28;20043;-66
2021/08/06 03:30:24;;;;;;;4.13;2.45;;;19.40;85.80;;;;;;5053265;28;20025;-66
2021/08/06 03:32:50;;;;;;;5.55;3.15;;;19.50;86.00;;;;;;5071330;28;20020;-66
2021/08/06 03:35:15;;;;;;;5.68;2.75;;;19.40;85.90;;;;;;5071050;28;20027;-67
2021/08/06 03:37:42;;;;;;;5.35;2.80;;;19.40;85.80;;;;;;5071395;28;20115;-66
2021/08/06 03:40:08;;;;;;;7.80;3.05;;;19.40;86.00;;;;;;5053284;28;20033;-66
2021/08/06 03:42:33;;;;;;;5.47;2.80;;;19.50;86.20;;;;;;5071221;28;20571;-66
2021/08/06 03:44:59;;;;;;;6.40;2.83;;;19.40;86.20;;;;;;5053183;28;20040;-66
2021/08/06 03:47:24;;;;;;;4.60;2.50;;;19.40;86.10;;;;;;5063487;28;20024;-66
2021/08/06 03:49:50;;;;;;;4.55;2.67;;;19.40;86.10;;;;;;5070659;28;20043;-66
2021/08/06 03:52:15;;;;;;;6.30;2.70;;;19.40;86.00;;;;;;5051929;28;20018;-67
2021/08/06 03:54:41;;;;;;;5.78;2.78;;;19.40;85.70;;;;;;5054998;28;20432;-66
2021/08/06 03:57:07;;;;;;;6.10;3.05;;;19.40;86.20;;;;;;5075030;28;20059;-66
2021/08/06 03:59:33;;;;;;;6.43;2.80;;;19.40;86.00;;;;;;5045900;28;20478;-67
2021/08/06 04:01:58;;;;;;;6.05;2.90;;;19.40;85.70;;;;;;5075147;28;20107;-66
2021/08/06 04:04:24;;;;;;;5.80;2.80;;;19.40;85.40;;;;;;5074526;28;20036;-66
2021/08/06 04:06:49;;;;;;;4.43;2.70;;;19.40;85.40;;;;;;5074447;28;20036;-66
2021/08/06 04:09:15;;;;;;;4.65;2.60;;;19.40;85.60;;;;;;5075181;28;20158;-67
2021/08/06 04:11:41;;;;;;;5.50;2.70;;;19.40;85.70;;;;;;5075185;28;20116;-66
2021/08/06 04:14:06;;;;;;;5.50;2.78;;;19.40;86.10;;;;;;5056933;28;20049;-67
2021/08/06 04:16:32;;;;;;;4.45;2.53;;;19.40;86.00;;;;;;5073754;28;20028;-67
2021/08/06 04:18:57;;;;;;;4.95;2.33;;;19.40;85.90;;;;;;5056834;28;20429;-67
2021/08/06 04:21:23;;;;;;;5.97;2.70;;;19.50;86.30;;;;;;5056822;28;20036;-67
2021/08/06 04:23:49;;;;;;;5.00;2.78;;;19.40;86.40;;;;;;5056409;28;20478;-67
2021/08/06 04:26:14;;;;;;;5.65;2.45;;;19.40;86.50;;;;;;5074404;28;20083;-67
2021/08/06 04:28:40;;;;;;;4.68;2.40;;;19.40;86.60;;;;;;5056815;28;20036;-67
2021/08/06 04:31:05;;;;;;;4.47;2.65;;;19.50;86.80;;;;;;5074703;28;20020;-66
2021/08/06 04:33:32;;;;;;;4.47;2.60;;;19.50;86.80;;;;;;5074229;28;20090;-67
2021/08/06 04:35:58;;;;;;;5.32;2.80;;;19.40;86.70;;;;;;5073893;28;20397;-66
2021/08/06 04:38:24;;;;;;;5.30;2.70;;;19.50;86.80;;;;;;5073067;28;20120;-67
2021/08/06 04:40:49;;;;;;;4.75;2.47;;;19.40;86.20;;;;;;5068399;28;20025;-68
2021/08/06 04:43:15;;;;;;;6.78;2.53;;;19.50;86.40;;;;;;5062657;28;20036;-68
2021/08/06 04:45:41;;;;;;;6.65;3.47;;;19.50;86.40;;;;;;5067285;28;20436;-67
2021/08/06 04:48:07;;;;;;;7.38;3.03;;;19.50;86.50;;;;;;5049876;28;20042;-68
2021/08/06 04:50:33;;;;;;;7.68;3.30;;;19.50;86.60;;;;;;5052638;28;20037;-67
2021/08/06 04:52:59;;;;;;;6.28;2.97;;;19.50;86.50;;;;;;5053446;28;20108;-69
2021/08/06 04:55:25;;;;;;;5.32;2.92;;;19.50;86.50;;;;;;5065307;28;20383;-67
2021/08/06 04:57:51;;;;;;;6.50;2.95;;;19.50;86.50;;;;;;5067572;28;20097;-67
2021/08/06 05:00:18;;;;;;;4.95;2.95;;;19.50;86.50;;;;;;5067574;28;20040;-68
2021/08/06 05:02:45;;;;;;;6.13;3.00;;;19.50;86.50;;;;;;5051942;28;20041;-67
2021/08/06 05:05:11;;;;;;;5.60;2.75;;;19.50;86.40;;;;;;5032512;28;20040;-67
2021/08/06 05:07:37;;;;;;;4.93;2.80;;;19.50;86.20;;;;;;5062148;28;20108;-68
2021/08/06 05:10:03;;;;;;;4.95;2.85;;;19.50;86.10;;;;;;5048014;28;20029;-66
2021/08/06 05:12:29;;;;;;;4.93;2.72;;;19.50;85.70;;;;;;5048546;28;20355;-66
2021/08/06 05:14:55;;;;;;;5.00;2.85;;;19.50;85.90;;;;;;5062844;28;20031;-66
2021/08/06 05:17:20;;;;;;;5.40;2.60;;;19.50;85.80;;;;;;5049131;28;20110;-67
2021/08/06 05:19:46;;;;;;;5.35;2.70;;;19.60;85.80;;;;;;5067185;28;20107;-68
2021/08/06 05:22:11;;;;;;;6.20;3.03;;;19.60;85.80;;;;;;5034840;28;20036;-66
2021/08/06 05:24:37;;;;;;;7.07;3.08;;;19.60;85.90;;;;;;5064480;28;20056;-68
2021/08/06 05:27:03;;;;;;;7.53;2.80;;;19.60;86.00;;;;;;5065198;28;20503;-68
2021/08/06 05:29:28;;;;;;;7.97;3.08;;;19.60;86.50;;;;;;5049247;28;20558;-69
2021/08/06 05:31:54;;;;;;;10.30;3.30;;;19.70;86.90;;;;;;5066784;28;20036;-69
2021/08/06 05:34:19;;;;;;;10.02;3.20;;;19.70;86.70;;;;;;5067210;28;20509;-70
2021/08/06 05:36:45;;;;;;;7.93;2.85;;;19.70;86.30;;;;;;5064040;28;20143;-68
2021/08/06 05:39:10;;;;;;;6.65;2.95;;;19.70;86.30;;;;;;5067037;28;20021;-69
2021/08/06 05:41:36;;;;;;;5.82;2.78;;;19.70;86.50;;;;;;5063750;28;20436;-69
2021/08/06 05:44:02;;;;;;;6.22;2.50;;;19.70;86.70;;;;;;5087309;28;20036;-68
2021/08/06 05:46:27;;;;;;;5.22;2.55;;;19.70;86.90;;;;;;5060058;28;20084;-67
2021/08/06 05:48:53;;;;;;;4.68;2.63;;;19.70;86.90;;;;;;5060696;28;20165;-69
2021/08/06 05:51:18;;;;;;;9.38;2.53;;;19.70;86.50;;;;;;5040217;28;20040;-68
2021/08/06 05:53:44;;;;;;;5.25;2.78;;;19.70;86.60;;;;;;5038003;28;20031;-69
2021/08/06 05:56:09;;;;;;;7.00;2.60;;;19.70;86.50;;;;;;5055264;28;20120;-67
2021/08/06 05:58:35;;;;;;;6.10;2.60;;;19.70;86.80;;;;;;5050184;28;20074;-70
2021/08/06 06:01:01;;;;;;;4.97;2.67;;;19.70;86.70;;;;;;5060735;28;20485;-67
2021/08/06 06:03:27;;;;;;;6.43;2.60;;;19.80;86.40;;;;;;5054746;28;20047;-67
2021/08/06 06:05:52;;;;;;;6.95;2.80;;;19.90;85.40;;;;;;5041267;28;20029;-67
2021/08/06 06:08:18;;;;;;;7.15;2.55;;;20.00;84.70;;;;;;5051699;28;20033;-68
2021/08/06 06:10:44;;;;;;;8.35;3.00;;;20.10;84.00;;;;;;5051867;28;20128;-68
2021/08/06 06:13:10;;;;;;;6.45;3.03;;;20.20;83.20;;;;;;5066546;28;20489;-68
2021/08/06 06:15:35;;;;;;;6.45;3.10;;;20.30;82.60;;;;;;5046690;28;20203;-68
2021/08/06 06:18:01;;;;;;;8.07;3.00;;;20.40;81.90;;;;;;5076601;28;20077;-66
2021/08/06 06:20:26;;;;;;;7.53;3.10;;;20.50;81.40;;;;;;5086337;28;20374;-66
2021/08/06 06:22:52;;;;;;;7.05;3.08;;;20.50;81.40;;;;;;5069126;28;20032;-67
2021/08/06 06:25:18;;;;;;;6.00;2.95;;;20.30;81.80;;;;;;5047742;28;20123;-69
2021/08/06 06:27:51;;;;;;;5.28;2.92;;;20.30;81.80;;;;;;5047573;28;20037;-68
2021/08/06 06:30:17;;;;;;;6.60;3.10;;;20.30;82.10;;;;;;5066062;28;20031;-68
2021/08/06 06:32:43;;;;;;;7.05;3.10;;;20.30;82.50;;;;;;5065933;28;20025;-67
2021/08/06 06:35:08;;;;;;;6.53;3.28;;;20.40;81.90;;;;;;5065234;28;20504;-67
2021/08/06 06:37:34;;;;;;;8.13;3.42;;;20.40;82.00;;;;;;5066438;28;20541;-69
2021/08/06 06:39:59;;;;;;;6.43;3.30;;;20.40;82.10;;;;;;5048004;28;20032;-68
2021/08/06 06:42:25;;;;;;;5.60;3.15;;;20.50;81.50;;;;;;5064491;28;20064;-68
2021/08/06 06:44:50;;;;;;;5.95;2.97;;;20.70;81.00;;;;;;5065297;28;20029;-69
2021/08/06 06:47:16;;;;;;;6.32;2.95;;;20.60;80.90;;;;;;5047677;28;20048;-68
2021/08/06 06:49:41;;;;;;;5.50;2.88;;;20.60;81.00;;;;;;5047243;28;20028;-67
2021/08/06 06:52:07;;;;;;;5.75;2.80;;;20.70;80.80;;;;;;5047492;28;20025;-69
2021/08/06 06:54:32;;;;;;;5.63;3.00;;;20.70;81.00;;;;;;5046530;28;20031;-67
2021/08/06 06:56:58;;;;;;;4.90;2.72;;;20.70;81.30;;;;;;5065299;28;20028;-66
2021/08/06 06:59:23;;;;;;;5.53;2.70;;;20.70;81.50;;;;;;5065447;28;20025;-69
2021/08/06 07:01:49;;;;;;;5.50;2.78;;;20.70;81.30;;;;;;5081891;28;20401;-69
2021/08/06 07:04:14;;;;;;;9.88;3.15;;;20.70;81.70;;;;;;5085690;28;20152;-67
2021/08/06 07:06:40;;;;;;;6.32;3.00;;;20.60;81.70;;;;;;5085413;28;20077;-68
2021/08/06 07:09:09;;;;;;;5.90;2.80;;;20.60;82.00;;;;;;5060433;28;20021;-68
2021/08/06 07:11:35;;;;;;;4.72;2.67;;;20.60;82.00;;;;;;5040807;28;20024;-69
2021/08/06 07:14:01;;;;;;;5.68;2.60;;;20.70;82.10;;;;;;5054461;28;20021;-68
2021/08/06 07:16:26;;;;;;;5.13;2.22;;;20.70;82.10;;;;;;5057743;28;20033;-68
2021/08/06 07:18:52;;;;;;;8.80;2.72;;;20.70;81.90;;;;;;5053843;28;20024;-67
2021/08/06 07:21:17;;;;;;;3.65;2.20;;;20.70;81.90;;;;;;5035084;28;20035;-68
2021/08/06 07:23:43;;;;;;;5.28;2.40;;;20.70;81.20;;;;;;5042871;28;20619;-67
2021/08/06 07:26:08;;;;;;;5.50;2.55;;;20.70;81.30;;;;;;5064647;28;20029;-68
2021/08/06 07:28:34;;;;;;;6.30;2.53;;;20.80;81.00;;;;;;5064701;28;20029;-68
2021/08/06 07:31:00;;;;;;;4.97;2.33;;;20.80;80.80;;;;;;5044663;28;20116;-67
2021/08/06 07:33:25;;;;;;;5.30;2.25;;;20.80;81.00;;;;;;5047081;28;20097;-68
2021/08/06 07:35:51;;;;;;;5.25;2.47;;;20.80;80.70;;;;;;5063124;28;20077;-68
2021/08/06 07:38:16;;;;;;;5.35;2.30;;;20.80;80.10;;;;;;5064675;28;20028;-68
2021/08/06 07:40:42;;;;;;;4.22;2.10;;;20.80;81.10;;;;;;5064852;28;20036;-67
2021/08/06 07:43:07;;;;;;;8.45;2.60;;;20.80;81.50;;;;;;5046962;28;20029;-68
2021/08/06 07:45:33;;;;;;;7.07;2.05;;;20.80;81.00;;;;;;5064552;28;20429;-68
2021/08/06 07:47:59;;;;;;;6.95;2.53;;;20.80;81.00;;;;;;5046707;28;20397;-68
2021/08/06 07:50:24;;;;;;;6.60;2.40;;;20.80;81.60;;;;;;5064813;28;20315;-68
2021/08/06 07:52:50;;;;;;;4.90;2.00;;;20.80;81.50;;;;;;5065181;28;20028;-68
2021/08/06 07:55:16;;;;;;;5.30;2.10;;;20.80;81.40;;;;;;5036734;28;20029;-69
2021/08/06 07:57:42;;;;;;;6.22;2.10;;;20.80;81.10;;;;;;5044907;28;20025;-68
2021/08/06 08:00:08;;;;;;;4.47;2.10;;;20.80;81.20;;;;;;5026764;28;20029;-69
2021/08/06 08:02:36;;;;;;;4.60;2.03;;;20.80;81.60;;;;;;5045074;28;20040;-68
2021/08/06 08:05:02;;;;;;;4.65;2.33;;;20.80;82.00;;;;;;5044329;28;20025;-67
2021/08/06 08:07:27;;;;;;;4.35;2.20;;;20.80;81.20;;;;;;5044951;28;20028;-68
2021/08/06 08:09:53;;;;;;;4.75;2.10;;;20.80;81.70;;;;;;5027140;28;20029;-67
2021/08/06 08:12:18;;;;;;;4.75;2.22;;;20.80;80.90;;;;;;5044980;28;20036;-67
2021/08/06 08:14:47;;;;;;;4.40;2.00;;;20.80;82.70;;;;;;5026575;28;20040;-70
2021/08/06 08:17:13;;;;;;;5.32;2.00;;;20.80;81.90;;;;;;5044781;28;20025;-67
2021/08/06 08:19:39;;;;;;;3.88;2.08;;;20.80;82.30;;;;;;5044564;28;20040;-67
2021/08/06 08:22:04;;;;;;;4.13;2.00;;;20.80;82.50;;;;;;5044803;28;20056;-67
2021/08/06 08:24:30;;;;;;;5.10;2.00;;;20.80;82.30;;;;;;5050811;28;20032;-69
2021/08/06 08:26:56;;;;;;;5.60;2.28;;;20.80;83.20;;;;;;5064428;28;20054;-67
2021/08/06 08:29:21;;;;;;;5.30;2.00;;;20.70;82.90;;;;;;5064108;28;20060;-68
2021/08/06 08:31:47;;;;;;;4.30;2.05;;;20.70;82.30;;;;;;5053645;28;20449;-68
2021/08/06 08:34:12;;;;;;;6.15;2.17;;;20.70;83.00;;;;;;5026263;28;20050;-69
2021/08/06 08:36:38;;;;;;;3.42;1.80;;;20.70;82.80;;;;;;5026496;28;20021;-68
2021/08/06 08:39:04;;;;;;;5.95;2.55;;;20.80;82.40;;;;;;5063508;28;20909;-68
2021/08/06 08:41:30;;;;;;;6.60;2.10;;;20.70;82.70;;;;;;5053279;28;20040;-68
2021/08/06 08:43:57;;;;;;;4.95;2.05;;;20.70;82.00;;;;;;5068029;28;20033;-69
2021/08/06 08:46:30;;;;;;;5.57;2.05;;;20.80;82.00;;;;;;5067646;28;20016;-68
2021/08/06 08:48:58;;;;;;;4.70;1.92;;;20.70;81.60;;;;;;5050113;28;20133;-69
2021/08/06 08:51:26;;;;;;;4.78;1.92;;;20.80;81.70;;;;;;5068085;28;20028;-68
2021/08/06 08:53:52;;;;;;;4.53;1.92;;;20.80;81.60;;;;;;5067454;28;20066;-68
2021/08/06 08:56:17;;;;;;;6.75;2.60;;;20.70;82.00;;;;;;5067640;28;20028;-68
2021/08/06 08:58:43;;;;;;;4.68;2.13;;;20.80;82.10;;;;;;5043165;28;20048;-68
2021/08/06 09:01:09;;;;;;;6.05;1.90;;;20.70;81.90;;;;;;5049393;28;20039;-68
2021/08/06 09:03:42;;;;;;;6.28;2.25;;;20.70;81.50;;;;;;5068003;28;20031;-69
2021/08/06 09:06:09;;;;;;;8.00;2.47;;;20.70;81.90;;;;;;5049198;28;20052;-68
2021/08/06 09:08:36;;;;;;;6.80;2.50;;;20.70;82.30;;;;;;5046909;28;20037;-66
2021/08/06 09:11:03;;;;;;;6.30;1.88;;;20.70;82.10;;;;;;5074802;28;20046;-67
2021/08/06 09:13:29;;;;;;;6.10;2.25;;;20.70;82.10;;;;;;5053136;28;20554;-67
2021/08/06 09:15:59;;;;;;;5.45;2.10;;;20.70;82.00;;;;;;5077559;28;20112;-68
2021/08/06 09:18:28;;;;;;;7.05;2.47;;;20.70;82.20;;;;;;5059163;28;20039;-68
2021/08/06 09:21:05;;;;;;;6.00;1.90;;;20.70;82.10;;;;;;5070902;28;20031;-68
2021/08/06 09:23:41;;;;;;;7.15;2.33;;;20.70;82.50;;;;;;5071988;28;20043;-66
2021/08/06 09:26:09;;;;;;;6.35;2.17;;;20.70;82.80;;;;;;5070422;28;20025;-67
2021/08/06 09:28:57;;;;;;;6.40;1.90;;;20.70;82.50;;;;;;5050204;28;20119;-67
2021/08/06 09:31:23;;;;;;;5.03;2.00;;;20.70;82.30;;;;;;5057885;28;20047;-67
2021/08/06 09:33:48;;;;;;;4.97;1.90;;;20.70;82.90;;;;;;5054852;28;20055;-68
2021/08/06 09:36:17;;;;;;;9.18;2.00;;;20.70;83.10;;;;;;5072065;28;20738;-68
2021/08/06 09:38:43;;;;;;;8.73;2.60;;;20.70;83.40;;;;;;5054750;28;20138;-67
2021/08/06 09:41:09;;;;;;;5.65;2.08;;;20.70;82.80;;;;;;5054612;28;20548;-67
2021/08/06 09:43:34;;;;;;;4.43;1.90;;;20.70;83.40;;;;;;5074566;28;20024;-67
2021/08/06 09:46:00;;;;;;;5.90;2.20;;;20.70;83.20;;;;;;5075775;28;20035;-67
2021/08/06 09:48:27;;;;;;;4.60;1.85;;;20.70;82.80;;;;;;5076430;28;20405;-68
2021/08/06 09:50:53;;;;;;;4.60;1.75;;;20.70;83.00;;;;;;5050690;28;20528;-68
2021/08/06 09:53:25;;;;;;;4.75;1.75;;;20.70;83.00;;;;;;5052802;28;20023;-67
2021/08/06 09:55:51;;;;;;;5.32;2.10;;;20.70;83.00;;;;;;5050642;28;20036;-68
2021/08/06 09:58:20;;;;;;;5.95;1.90;;;20.70;82.80;;;;;;5072674;28;20035;-69
2021/08/06 10:00:48;;;;;;;4.63;1.90;;;20.70;83.40;;;;;;5054145;28;20540;-68
2021/08/06 10:03:31;;;;;;;4.13;1.70;;;20.70;83.00;;;;;;5053525;28;20025;-67
2021/08/06 10:06:19;;;;;;;4.00;1.60;;;20.70;83.20;;;;;;5050425;28;20553;-67
2021/08/06 10:08:45;;;;;;;4.25;1.60;;;20.70;82.80;;;;;;5070595;28;20306;-68
2021/08/06 10:11:12;;;;;;;5.10;1.70;;;20.70;82.70;;;;;;5074134;28;20114;-68
2021/08/06 10:13:38;;;;;;;3.53;1.40;;;20.70;83.70;;;;;;5059418;28;20024;-67
2021/08/06 10:16:04;;;;;;;3.92;1.60;;;20.70;83.20;;;;;;5051819;28;20054;-67
2021/08/06 10:18:31;;;;;;;5.07;1.75;;;20.70;83.20;;;;;;5072149;28;20823;-66
2021/08/06 10:20:57;;;;;;;3.25;1.23;;;20.70;83.00;;;;;;5065628;28;20039;-68
2021/08/06 10:23:22;;;;;;;3.63;1.30;;;20.70;83.90;;;;;;5050077;28;20037;-66
2021/08/06 10:25:48;;;;;;;4.55;1.35;;;20.70;83.20;;;;;;5063918;28;20082;-68
2021/08/06 10:28:14;;;;;;;3.83;1.48;;;20.70;83.20;;;;;;5064788;28;20051;-67
2021/08/06 10:30:40;;;;;;;4.78;1.75;;;20.70;83.50;;;;;;5072805;28;20077;-67
2021/08/06 10:33:20;;;;;;;5.18;1.13;;;20.70;83.10;;;;;;5056075;28;20028;-67
2021/08/06 10:35:49;;;;;;;2.20;1.10;;;20.80;83.50;;;;;;5054233;28;20036;-69
2021/08/06 10:38:36;;;;;;;4.25;1.27;;;20.70;83.40;;;;;;5068971;28;20031;-67
2021/08/06 10:41:12;;;;;;;3.47;1.30;;;20.80;83.10;;;;;;5070678;28;20040;-67
2021/08/06 10:43:41;;;;;;;3.55;1.50;;;20.70;83.20;;;;;;5073239;28;20275;-68
2021/08/06 10:46:11;;;;;;;3.53;1.05;;;20.80;83.10;;;;;;5077720;28;20028;-68
2021/08/06 10:48:40;;;;;;;2.95;1.20;;;20.70;83.00;;;;;;5059801;28;20036;-68
2021/08/06 10:51:12;;;;;;;3.53;1.25;;;20.80;83.50;;;;;;5073373;28;20030;-68
2021/08/06 10:53:38;;;;;;;;;;;20.70;83.20;;;;;;5076572;28;20028;-68
2021/08/06 10:56:15;;;;;;;3.90;1.35;;;20.80;83.30;;;;;;5052368;28;19916;-67
2021/08/06 10:58:50;;;;;;;2.08;1.00;;;20.80;83.30;;;;;;5076950;28;20061;-69
2021/08/06 11:01:32;;;;;;;1.92;1.00;;;20.80;83.40;;;;;;5057614;28;20101;-66
2021/08/06 11:04:04;;;;;;;2.08;0.95;;;20.80;83.20;;;;;;5070434;28;20024;-67
2021/08/06 11:06:47;;;;;;;1.67;1.00;;;20.90;83.00;;;;;;5077168;28;20107;-67
2021/08/06 11:09:25;;;;;;;2.28;0.90;;;20.90;82.70;;;;;;5077758;28;20031;-67
2021/08/06 11:11:59;;;;;;;3.00;1.20;;;20.90;82.90;;;;;;5056198;28;20043;-69
2021/08/06 11:14:28;;;;;;;2.75;1.20;;;20.90;82.80;;;;;;5051457;28;20055;-68
2021/08/06 11:17:14;;;;;;;2.22;1.05;;;21.00;83.20;;;;;;5070700;28;20025;-68
2021/08/06 11:19:45;;;;;;;2.83;1.00;;;21.00;82.60;;;;;;5053127;28;20024;-68
2021/08/06 11:22:17;;;;;;;3.35;1.15;;;21.00;82.20;;;;;;5058693;28;20112;-67
2021/08/06 11:24:47;;;;;;;;;;;21.00;82.80;;;;;;5071000;28;20028;-67
2021/08/06 11:27:14;;;;;;;2.13;1.00;;;21.00;82.30;;;;;;5074756;28;20465;-67
2021/08/06 11:29:42;;;;;;;2.85;1.00;;;21.10;82.30;;;;;;5072812;28;20032;-68
2021/08/06 11:32:11;;;;;;;3.22;1.30;;;21.10;82.50;;;;;;5076720;28;20059;-67
2021/08/06 11:35:00;;;;;;;2.90;1.17;;;21.10;81.40;;;;;;5057935;28;20054;-70
2021/08/06 11:37:52;;;;;;;3.58;1.13;;;21.10;82.40;;;;;;5051585;28;20029;-68
2021/08/06 11:40:20;;;;;;;2.97;1.17;;;21.10;82.80;;;;;;5067491;28;20060;-69
2021/08/06 11:42:47;;;;;;;1.92;1.02;;;21.10;82.30;;;;;;5067698;28;20584;-70
2021/08/06 11:45:17;;;;;;;1.75;0.90;;;21.10;82.00;;;;;;5064590;28;20450;-67
2021/08/06 11:47:45;;;;;;;1.75;1.10;;;21.10;82.70;;;;;;5064682;28;20082;-67
2021/08/06 11:50:17;;;;;;;1.70;1.00;;;21.10;84.10;;;;;;5058016;28;20462;-69
2021/08/06 11:52:48;;;;;;;2.97;1.20;;;21.10;83.80;;;;;;5052807;28;20024;-67
2021/08/06 11:55:18;;;;;;;;;;;21.10;83.50;;;;;;5076732;28;20028;-68
2021/08/06 11:57:52;;;;;;;4.00;1.13;;;21.20;83.10;;;;;;5074755;28;19917;-70
2021/08/06 12:00:27;;;;;;;2.53;1.30;;;21.20;83.50;;;;;;5052968;28;20504;-68
2021/08/06 12:03:14;;;;;;;2.25;1.10;;;21.20;82.00;;;;;;5072451;28;20580;-67
2021/08/06 12:05:47;;;;;;;2.22;1.40;;;21.20;83.20;;;;;;5060878;28;20039;-67
2021/08/06 12:08:17;;;;;;;2.80;1.27;;;21.20;83.70;;;;;;5058851;28;20101;-67
2021/08/06 12:10:44;;;;;;;3.13;1.15;;;21.20;84.20;;;;;;5070749;28;20610;-69
2021/08/06 12:13:21;;;;;;;2.80;1.23;;;21.20;84.20;;;;;;5074175;28;20020;-67
2021/08/06 12:15:47;;;;;;;2.45;1.13;;;21.30;82.80;;;;;;5071088;28;20031;-69
2021/08/06 12:18:21;;;;;;;4.05;1.23;;;21.30;83.40;;;;;;5063048;28;20050;-68
2021/08/06 12:21:17;;;;;;;2.90;1.45;;;21.30;83.60;;;;;;5056285;28;20042;-67
2021/08/06 12:24:10;;;;;;;2.63;1.35;;;21.30;84.30;;;;;;5054488;28;20048;-68
2021/08/06 12:26:47;;;;;;;3.40;1.52;;;21.30;85.90;;;;;;5054339;28;20468;-69
2021/08/06 12:29:20;;;;;;;2.20;1.08;;;21.30;85.50;;;;;;5072384;28;20089;-67
2021/08/06 12:31:54;;;;;;;4.25;1.25;;;21.40;85.20;;;;;;5072287;28;20493;-68
2021/08/06 12:34:29;;;;;;;3.05;1.60;;;21.40;86.20;;;;;;5053953;28;20778;-67
2021/08/06 12:36:59;;;;;;;2.70;1.17;;;21.40;86.10;;;;;;5074136;28;20024;-67
2021/08/06 12:39:27;;;;;;;2.60;1.40;;;21.40;85.80;;;;;;5073743;28;20033;-67
2021/08/06 12:41:54;;;;;;;2.20;1.20;;;21.30;85.50;;;;;;5060782;28;20074;-66
2021/08/06 12:44:29;;;;;;;1.83;1.20;;;21.30;85.20;;;;;;5079808;28;20028;-68
2021/08/06 12:47:11;;;;;;;2.22;1.42;;;21.30;84.30;;;;;;5049804;28;20111;-69
2021/08/06 12:49:46;;;;;;;1.48;1.00;;;21.40;84.90;;;;;;5056509;28;20428;-67
2021/08/06 12:52:19;;;;;;;1.83;1.20;;;21.40;84.20;;;;;;5080429;28;20505;-67